sensor_id;sensor_type;location;lat;lon;timestamp;P1;P2;P0
50587;PMS7003;36546;50.516;30.826;2023-03-14T00:00:55;4.80;4.80;3.20
50587;PMS7003;36546;50.516;30.826;2023-03-14T00:01:58;4.00;4.00;3.40
50587;PMS7003;36546;50.516;30.826;2023-03-14T00:03:00;5.10;3.90;3.50
50587;PMS7003;36546;50.516;30.826;2023-03-14T00:04:12;4.10;4.10;3.30
50587;PMS7003;36546;50.516;30.826;2023-03-14T00:05:20;4.00;4.00;3.30
50587;PMS7003;36546;50.516;30.826;2023-03-14T00:06:25;6.10;5.00;4.00
50587;PMS7003;36546;50.516;30.826;2023-03-14T00:07:28;5.40;4.40;3.20
50587;PMS7003;36546;50.516;30.826;2023-03-14T00:08:30;4.50;4.10;3.40
50587;PMS7003;36546;50.516;30.826;2023-03-14T00:09:42;4.30;4.30;3.20
50587;PMS7003;36546;50.516;30.826;2023-03-14T00:10:45;4.30;4.00;2.90
50587;PMS7003;36546;50.516;30.826;2023-03-14T00:11:52;3.90;3.90;3.00
50587;PMS7003;36546;50.516;30.826;2023-03-14T00:12:56;3.90;3.50;2.90
50587;PMS7003;36546;50.516;30.826;2023-03-14T00:14:00;4.20;4.20;3.50
50587;PMS7003;36546;50.516;30.826;2023-03-14T00:15:06;3.70;3.70;3.40
50587;PMS7003;36546;50.516;30.826;2023-03-14T00:16:10;4.90;3.40;2.60
50587;PMS7003;36546;50.516;30.826;2023-03-14T00:17:16;2.80;2.80;2.40
50587;PMS7003;36546;50.516;30.826;2023-03-14T00:18:29;4.80;3.90;3.00
50587;PMS7003;36546;50.516;30.826;2023-03-14T00:19:32;4.40;3.80;3.40
50587;PMS7003;36546;50.516;30.826;2023-03-14T00:20:37;4.10;4.10;3.60
50587;PMS7003;36546;50.516;30.826;2023-03-14T00:21:44;3.20;3.20;2.80
50587;PMS7003;36546;50.516;30.826;2023-03-14T00:22:47;4.40;4.40;3.00
50587;PMS7003;36546;50.516;30.826;2023-03-14T00:23:52;3.30;3.30;3.00
50587;PMS7003;36546;50.516;30.826;2023-03-14T00:25:08;5.10;4.30;3.70
50587;PMS7003;36546;50.516;30.826;2023-03-14T00:26:17;2.70;2.70;2.10
50587;PMS7003;36546;50.516;30.826;2023-03-14T00:27:25;4.30;3.80;3.10
50587;PMS7003;36546;50.516;30.826;2023-03-14T00:28:28;4.00;3.70;2.30
50587;PMS7003;36546;50.516;30.826;2023-03-14T00:29:33;4.40;4.00;3.30
50587;PMS7003;36546;50.516;30.826;2023-03-14T00:30:39;4.40;4.00;3.10
50587;PMS7003;36546;50.516;30.826;2023-03-14T00:31:44;3.60;3.60;2.90
50587;PMS7003;36546;50.516;30.826;2023-03-14T00:32:50;3.20;3.20;2.50
50587;PMS7003;36546;50.516;30.826;2023-03-14T00:34:08;4.00;4.00;3.50
50587;PMS7003;36546;50.516;30.826;2023-03-14T00:35:18;3.30;3.30;2.60
50587;PMS7003;36546;50.516;30.826;2023-03-14T00:36:26;2.70;2.70;2.40
50587;PMS7003;36546;50.516;30.826;2023-03-14T00:37:31;3.10;3.10;2.00
50587;PMS7003;36546;50.516;30.826;2023-03-14T00:38:35;5.00;3.30;2.80
50587;PMS7003;36546;50.516;30.826;2023-03-14T00:39:39;3.10;3.10;2.60
50587;PMS7003;36546;50.516;30.826;2023-03-14T00:40:47;2.70;2.70;1.80
50587;PMS7003;36546;50.516;30.826;2023-03-14T00:41:53;4.60;3.20;2.50
50587;PMS7003;36546;50.516;30.826;2023-03-14T00:42:58;4.00;4.00;2.50
50587;PMS7003;36546;50.516;30.826;2023-03-14T00:44:05;3.70;3.70;2.90
50587;PMS7003;36546;50.516;30.826;2023-03-14T00:45:12;3.40;2.90;2.50
50587;PMS7003;36546;50.516;30.826;2023-03-14T00:46:20;2.60;2.60;1.90
50587;PMS7003;36546;50.516;30.826;2023-03-14T00:47:25;3.10;2.70;2.20
50587;PMS7003;36546;50.516;30.826;2023-03-14T00:48:29;4.20;3.40;2.40
50587;PMS7003;36546;50.516;30.826;2023-03-14T00:49:45;3.00;3.00;2.70
50587;PMS7003;36546;50.516;30.826;2023-03-14T00:50:47;3.70;3.00;2.50
50587;PMS7003;36546;50.516;30.826;2023-03-14T00:51:50;2.45;2.45;1.91
50587;PMS7003;36546;50.516;30.826;2023-03-14T00:52:55;3.40;3.40;2.70
50587;PMS7003;36546;50.516;30.826;2023-03-14T00:54:02;3.60;3.30;2.60
50587;PMS7003;36546;50.516;30.826;2023-03-14T00:55:07;3.30;3.30;2.90
50587;PMS7003;36546;50.516;30.826;2023-03-14T00:56:14;4.00;3.40;2.50
50587;PMS7003;36546;50.516;30.826;2023-03-14T00:57:18;3.40;2.90;2.60
50587;PMS7003;36546;50.516;30.826;2023-03-14T00:58:26;2.80;2.80;2.70
50587;PMS7003;36546;50.516;30.826;2023-03-14T00:59:33;3.90;3.50;2.90
50587;PMS7003;36546;50.516;30.826;2023-03-14T01:00:40;3.80;3.00;2.90
50587;PMS7003;36546;50.516;30.826;2023-03-14T01:01:45;1.70;1.70;1.70
50587;PMS7003;36546;50.516;30.826;2023-03-14T01:02:48;3.45;3.45;2.82
50587;PMS7003;36546;50.516;30.826;2023-03-14T01:03:57;3.70;3.00;2.40
50587;PMS7003;36546;50.516;30.826;2023-03-14T01:04:59;2.90;2.90;2.40
50587;PMS7003;36546;50.516;30.826;2023-03-14T01:06:13;3.60;3.20;2.40
50587;PMS7003;36546;50.516;30.826;2023-03-14T01:07:17;5.00;4.00;2.70
50587;PMS7003;36546;50.516;30.826;2023-03-14T01:08:27;3.80;3.80;2.70
50587;PMS7003;36546;50.516;30.826;2023-03-14T01:09:29;4.40;3.50;2.80
50587;PMS7003;36546;50.516;30.826;2023-03-14T01:10:31;2.90;2.90;2.40
50587;PMS7003;36546;50.516;30.826;2023-03-14T01:11:34;3.40;3.40;2.50
50587;PMS7003;36546;50.516;30.826;2023-03-14T01:12:37;3.40;3.40;2.80
50587;PMS7003;36546;50.516;30.826;2023-03-14T01:13:39;3.50;3.00;2.60
50587;PMS7003;36546;50.516;30.826;2023-03-14T01:14:42;2.80;2.80;2.30
50587;PMS7003;36546;50.516;30.826;2023-03-14T01:15:44;3.50;3.00;2.60
50587;PMS7003;36546;50.516;30.826;2023-03-14T01:16:46;2.67;2.67;1.89
50587;PMS7003;36546;50.516;30.826;2023-03-14T01:17:48;3.20;3.00;2.30
50587;PMS7003;36546;50.516;30.826;2023-03-14T01:18:51;2.50;2.50;1.80
50587;PMS7003;36546;50.516;30.826;2023-03-14T01:19:54;3.20;2.60;1.90
50587;PMS7003;36546;50.516;30.826;2023-03-14T01:20:56;3.50;2.80;2.70
50587;PMS7003;36546;50.516;30.826;2023-03-14T01:21:59;3.45;3.45;2.73
50587;PMS7003;36546;50.516;30.826;2023-03-14T01:23:01;3.50;2.30;2.20
50587;PMS7003;36546;50.516;30.826;2023-03-14T01:24:04;3.50;2.70;2.50
50587;PMS7003;36546;50.516;30.826;2023-03-14T01:25:12;3.70;3.00;2.60
50587;PMS7003;36546;50.516;30.826;2023-03-14T01:26:17;2.30;2.30;1.60
50587;PMS7003;36546;50.516;30.826;2023-03-14T01:27:21;3.60;3.60;2.50
50587;PMS7003;36546;50.516;30.826;2023-03-14T01:28:24;3.70;3.60;2.60
50587;PMS7003;36546;50.516;30.826;2023-03-14T01:29:27;1.30;0.50;0.40
50587;PMS7003;36546;50.516;30.826;2023-03-14T01:30:30;3.40;2.50;2.10
50587;PMS7003;36546;50.516;30.826;2023-03-14T01:31:33;4.50;3.70;3.20
50587;PMS7003;36546;50.516;30.826;2023-03-14T01:32:35;3.90;3.20;2.50
50587;PMS7003;36546;50.516;30.826;2023-03-14T01:33:37;3.00;3.00;2.20
50587;PMS7003;36546;50.516;30.826;2023-03-14T01:34:40;3.00;2.73;2.09
50587;PMS7003;36546;50.516;30.826;2023-03-14T01:35:43;3.80;3.80;2.80
50587;PMS7003;36546;50.516;30.826;2023-03-14T01:36:45;2.40;2.40;1.60
50587;PMS7003;36546;50.516;30.826;2023-03-14T01:37:48;2.20;2.20;2.00
50587;PMS7003;36546;50.516;30.826;2023-03-14T01:38:53;2.80;2.30;1.70
50587;PMS7003;36546;50.516;30.826;2023-03-14T01:39:56;4.20;3.10;2.50
50587;PMS7003;36546;50.516;30.826;2023-03-14T01:40:58;2.10;1.80;1.50
50587;PMS7003;36546;50.516;30.826;2023-03-14T01:42:01;2.30;2.30;1.80
50587;PMS7003;36546;50.516;30.826;2023-03-14T01:43:11;2.70;2.70;1.90
50587;PMS7003;36546;50.516;30.826;2023-03-14T01:44:11;2.80;2.60;2.10
50587;PMS7003;36546;50.516;30.826;2023-03-14T01:46:53;2.20;2.20;1.40
50587;PMS7003;36546;50.516;30.826;2023-03-14T01:47:56;3.70;2.70;2.10
50587;PMS7003;36546;50.516;30.826;2023-03-14T01:50:30;3.20;3.20;2.20
50587;PMS7003;36546;50.516;30.826;2023-03-14T01:52:43;2.60;2.60;1.90
50587;PMS7003;36546;50.516;30.826;2023-03-14T01:53:49;2.00;2.00;1.70
50587;PMS7003;36546;50.516;30.826;2023-03-14T01:54:54;1.80;1.80;1.50
50587;PMS7003;36546;50.516;30.826;2023-03-14T01:56:11;3.00;3.00;2.10
50587;PMS7003;36546;50.516;30.826;2023-03-14T01:57:27;2.80;2.80;2.20
50587;PMS7003;36546;50.516;30.826;2023-03-14T01:58:37;3.40;2.50;2.00
50587;PMS7003;36546;50.516;30.826;2023-03-14T01:59:43;2.40;2.40;1.80
50587;PMS7003;36546;50.516;30.826;2023-03-14T02:01:02;3.40;2.40;2.10
50587;PMS7003;36546;50.516;30.826;2023-03-14T02:02:06;1.70;1.40;1.40
50587;PMS7003;36546;50.516;30.826;2023-03-14T02:03:14;2.10;2.00;1.40
50587;PMS7003;36546;50.516;30.826;2023-03-14T02:04:16;2.80;2.40;1.80
50587;PMS7003;36546;50.516;30.826;2023-03-14T02:05:21;2.10;1.90;1.20
50587;PMS7003;36546;50.516;30.826;2023-03-14T02:06:29;2.10;2.10;1.40
50587;PMS7003;36546;50.516;30.826;2023-03-14T02:07:48;3.10;1.90;1.70
50587;PMS7003;36546;50.516;30.826;2023-03-14T02:08:53;2.30;2.30;1.60
50587;PMS7003;36546;50.516;30.826;2023-03-14T02:09:58;1.70;1.70;0.90
50587;PMS7003;36546;50.516;30.826;2023-03-14T02:11:03;1.50;1.50;1.30
50587;PMS7003;36546;50.516;30.826;2023-03-14T02:12:25;1.90;1.90;1.60
50587;PMS7003;36546;50.516;30.826;2023-03-14T02:13:32;1.60;1.60;1.00
50587;PMS7003;36546;50.516;30.826;2023-03-14T02:14:37;2.20;2.20;1.40
50587;PMS7003;36546;50.516;30.826;2023-03-14T02:15:47;1.80;1.80;1.30
50587;PMS7003;36546;50.516;30.826;2023-03-14T02:17:00;2.00;2.00;1.60
50587;PMS7003;36546;50.516;30.826;2023-03-14T02:18:22;3.00;2.20;1.70
50587;PMS7003;36546;50.516;30.826;2023-03-14T02:19:39;1.60;1.60;0.90
50587;PMS7003;36546;50.516;30.826;2023-03-14T02:22:29;2.00;2.00;2.00
50587;PMS7003;36546;50.516;30.826;2023-03-14T02:24:53;3.10;2.60;2.00
50587;PMS7003;36546;50.516;30.826;2023-03-14T02:25:57;1.40;0.90;0.70
50587;PMS7003;36546;50.516;30.826;2023-03-14T02:27:03;3.00;2.20;1.60
50587;PMS7003;36546;50.516;30.826;2023-03-14T02:28:11;1.50;1.50;1.30
50587;PMS7003;36546;50.516;30.826;2023-03-14T02:29:14;2.70;1.90;1.90
50587;PMS7003;36546;50.516;30.826;2023-03-14T02:30:23;2.50;2.20;1.70
50587;PMS7003;36546;50.516;30.826;2023-03-14T02:31:28;2.20;2.20;1.40
50587;PMS7003;36546;50.516;30.826;2023-03-14T02:32:31;2.20;1.20;1.10
50587;PMS7003;36546;50.516;30.826;2023-03-14T02:33:35;1.90;1.90;1.40
50587;PMS7003;36546;50.516;30.826;2023-03-14T02:34:39;2.20;2.20;1.60
50587;PMS7003;36546;50.516;30.826;2023-03-14T02:35:48;2.00;2.00;1.40
50587;PMS7003;36546;50.516;30.826;2023-03-14T02:37:00;1.40;1.40;1.10
50587;PMS7003;36546;50.516;30.826;2023-03-14T02:39:35;2.50;2.20;1.70
50587;PMS7003;36546;50.516;30.826;2023-03-14T02:40:45;1.80;1.80;1.80
50587;PMS7003;36546;50.516;30.826;2023-03-14T02:41:47;3.50;2.40;1.80
50587;PMS7003;36546;50.516;30.826;2023-03-14T02:42:49;2.70;1.70;1.20
50587;PMS7003;36546;50.516;30.826;2023-03-14T02:43:53;1.80;1.80;1.60
50587;PMS7003;36546;50.516;30.826;2023-03-14T02:45:25;2.50;2.50;1.70
50587;PMS7003;36546;50.516;30.826;2023-03-14T02:47:29;3.10;3.10;2.10
50587;PMS7003;36546;50.516;30.826;2023-03-14T02:48:37;1.40;1.40;1.40
50587;PMS7003;36546;50.516;30.826;2023-03-14T02:50:05;3.20;2.70;1.80
50587;PMS7003;36546;50.516;30.826;2023-03-14T02:51:15;2.80;2.40;1.80
50587;PMS7003;36546;50.516;30.826;2023-03-14T02:52:19;2.60;2.10;1.80
50587;PMS7003;36546;50.516;30.826;2023-03-14T02:53:24;2.40;1.80;1.60
50587;PMS7003;36546;50.516;30.826;2023-03-14T02:54:29;2.80;1.60;1.30
50587;PMS7003;36546;50.516;30.826;2023-03-14T02:55:32;1.60;1.60;1.00
50587;PMS7003;36546;50.516;30.826;2023-03-14T02:56:37;2.20;1.70;1.60
50587;PMS7003;36546;50.516;30.826;2023-03-14T02:57:39;1.80;1.80;1.50
50587;PMS7003;36546;50.516;30.826;2023-03-14T02:58:41;2.10;2.10;1.70
50587;PMS7003;36546;50.516;30.826;2023-03-14T02:59:48;1.70;1.70;1.60
50587;PMS7003;36546;50.516;30.826;2023-03-14T03:00:52;1.90;1.50;1.10
50587;PMS7003;36546;50.516;30.826;2023-03-14T03:01:59;1.80;1.70;1.40
50587;PMS7003;36546;50.516;30.826;2023-03-14T03:03:02;1.40;1.40;0.80
50587;PMS7003;36546;50.516;30.826;2023-03-14T03:04:05;1.40;1.40;0.90
50587;PMS7003;36546;50.516;30.826;2023-03-14T03:05:08;1.50;1.40;1.00
50587;PMS7003;36546;50.516;30.826;2023-03-14T03:06:11;2.60;2.20;1.80
50587;PMS7003;36546;50.516;30.826;2023-03-14T03:07:13;2.60;1.90;1.60
50587;PMS7003;36546;50.516;30.826;2023-03-14T03:08:16;1.20;1.20;0.80
50587;PMS7003;36546;50.516;30.826;2023-03-14T03:09:20;3.00;2.20;1.50
50587;PMS7003;36546;50.516;30.826;2023-03-14T03:10:22;1.40;1.40;1.00
50587;PMS7003;36546;50.516;30.826;2023-03-14T03:11:25;2.30;2.30;1.40
50587;PMS7003;36546;50.516;30.826;2023-03-14T03:12:28;2.70;1.90;1.50
50587;PMS7003;36546;50.516;30.826;2023-03-14T03:13:30;1.60;0.90;0.80
50587;PMS7003;36546;50.516;30.826;2023-03-14T03:14:32;1.70;1.70;1.50
50587;PMS7003;36546;50.516;30.826;2023-03-14T03:15:37;1.60;1.40;1.10
50587;PMS7003;36546;50.516;30.826;2023-03-14T03:16:41;3.20;2.20;1.80
50587;PMS7003;36546;50.516;30.826;2023-03-14T03:17:44;1.50;1.50;1.20
50587;PMS7003;36546;50.516;30.826;2023-03-14T03:18:46;2.10;1.90;1.40
50587;PMS7003;36546;50.516;30.826;2023-03-14T03:19:48;1.50;1.50;0.70
50587;PMS7003;36546;50.516;30.826;2023-03-14T03:20:52;2.00;2.00;2.00
50587;PMS7003;36546;50.516;30.826;2023-03-14T03:21:54;2.30;2.30;1.90
50587;PMS7003;36546;50.516;30.826;2023-03-14T03:22:57;2.60;1.60;1.40
50587;PMS7003;36546;50.516;30.826;2023-03-14T03:24:01;1.90;1.40;1.40
50587;PMS7003;36546;50.516;30.826;2023-03-14T03:25:04;2.00;1.20;0.80
50587;PMS7003;36546;50.516;30.826;2023-03-14T03:26:08;1.30;1.20;0.80
50587;PMS7003;36546;50.516;30.826;2023-03-14T03:27:11;1.70;1.70;1.30
50587;PMS7003;36546;50.516;30.826;2023-03-14T03:28:14;1.30;1.00;0.70
50587;PMS7003;36546;50.516;30.826;2023-03-14T03:29:17;2.30;2.20;1.60
50587;PMS7003;36546;50.516;30.826;2023-03-14T03:30:20;1.20;1.20;1.10
50587;PMS7003;36546;50.516;30.826;2023-03-14T03:31:23;2.50;2.50;1.90
50587;PMS7003;36546;50.516;30.826;2023-03-14T03:32:26;1.70;1.70;1.40
50587;PMS7003;36546;50.516;30.826;2023-03-14T03:33:29;2.50;1.70;1.10
50587;PMS7003;36546;50.516;30.826;2023-03-14T03:34:31;3.50;2.30;1.90
50587;PMS7003;36546;50.516;30.826;2023-03-14T03:35:33;2.00;2.00;1.90
50587;PMS7003;36546;50.516;30.826;2023-03-14T03:36:35;1.20;0.00;0.00
50587;PMS7003;36546;50.516;30.826;2023-03-14T03:37:38;1.30;1.30;1.00
50587;PMS7003;36546;50.516;30.826;2023-03-14T03:38:41;1.50;1.50;1.00
50587;PMS7003;36546;50.516;30.826;2023-03-14T03:39:44;1.40;1.40;1.40
50587;PMS7003;36546;50.516;30.826;2023-03-14T03:40:47;1.30;1.30;0.90
50587;PMS7003;36546;50.516;30.826;2023-03-14T03:41:50;1.00;1.00;0.60
50587;PMS7003;36546;50.516;30.826;2023-03-14T03:42:54;2.00;1.40;1.10
50587;PMS7003;36546;50.516;30.826;2023-03-14T03:43:56;2.60;1.80;1.60
50587;PMS7003;36546;50.516;30.826;2023-03-14T03:44:59;2.30;2.30;1.70
50587;PMS7003;36546;50.516;30.826;2023-03-14T03:46:04;1.20;1.20;0.90
50587;PMS7003;36546;50.516;30.826;2023-03-14T03:47:08;1.60;1.20;0.90
50587;PMS7003;36546;50.516;30.826;2023-03-14T03:48:10;1.40;1.10;0.70
50587;PMS7003;36546;50.516;30.826;2023-03-14T03:49:12;1.50;1.50;1.40
50587;PMS7003;36546;50.516;30.826;2023-03-14T03:50:16;1.60;1.10;1.10
50587;PMS7003;36546;50.516;30.826;2023-03-14T03:51:18;1.70;0.90;0.80
50587;PMS7003;36546;50.516;30.826;2023-03-14T03:52:22;1.70;1.70;1.20
50587;PMS7003;36546;50.516;30.826;2023-03-14T03:53:24;1.40;1.40;1.00
50587;PMS7003;36546;50.516;30.826;2023-03-14T03:54:29;1.40;1.40;1.30
50587;PMS7003;36546;50.516;30.826;2023-03-14T03:55:31;2.70;1.60;1.30
50587;PMS7003;36546;50.516;30.826;2023-03-14T03:56:35;2.10;2.10;1.40
50587;PMS7003;36546;50.516;30.826;2023-03-14T03:57:37;2.70;2.70;1.60
50587;PMS7003;36546;50.516;30.826;2023-03-14T03:58:40;0.50;0.50;0.20
50587;PMS7003;36546;50.516;30.826;2023-03-14T03:59:43;2.60;2.00;1.50
50587;PMS7003;36546;50.516;30.826;2023-03-14T04:00:45;1.60;1.60;1.10
50587;PMS7003;36546;50.516;30.826;2023-03-14T04:01:48;1.20;1.20;0.90
50587;PMS7003;36546;50.516;30.826;2023-03-14T04:02:52;2.10;2.10;1.20
50587;PMS7003;36546;50.516;30.826;2023-03-14T04:03:54;1.40;1.40;0.80
50587;PMS7003;36546;50.516;30.826;2023-03-14T04:04:57;1.00;1.00;0.70
50587;PMS7003;36546;50.516;30.826;2023-03-14T04:06:03;1.60;1.50;1.40
50587;PMS7003;36546;50.516;30.826;2023-03-14T04:07:09;1.50;1.50;1.20
50587;PMS7003;36546;50.516;30.826;2023-03-14T04:08:11;2.00;2.00;1.60
50587;PMS7003;36546;50.516;30.826;2023-03-14T04:09:13;1.70;1.70;1.20
50587;PMS7003;36546;50.516;30.826;2023-03-14T04:10:21;2.50;2.50;1.40
50587;PMS7003;36546;50.516;30.826;2023-03-14T04:11:25;1.10;0.50;0.40
50587;PMS7003;36546;50.516;30.826;2023-03-14T04:12:32;1.40;1.40;0.90
50587;PMS7003;36546;50.516;30.826;2023-03-14T04:13:37;2.10;1.40;0.80
50587;PMS7003;36546;50.516;30.826;2023-03-14T04:14:39;1.50;1.50;1.00
50587;PMS7003;36546;50.516;30.826;2023-03-14T04:15:46;1.40;1.40;1.30
50587;PMS7003;36546;50.516;30.826;2023-03-14T04:16:56;1.50;1.10;0.80
50587;PMS7003;36546;50.516;30.826;2023-03-14T04:17:59;1.20;1.20;0.90
50587;PMS7003;36546;50.516;30.826;2023-03-14T04:19:01;1.60;1.30;0.90
50587;PMS7003;36546;50.516;30.826;2023-03-14T04:20:07;1.20;0.70;0.20
50587;PMS7003;36546;50.516;30.826;2023-03-14T04:21:11;1.00;1.00;0.80
50587;PMS7003;36546;50.516;30.826;2023-03-14T04:22:15;2.10;1.70;1.40
50587;PMS7003;36546;50.516;30.826;2023-03-14T04:23:22;2.00;1.50;1.00
50587;PMS7003;36546;50.516;30.826;2023-03-14T04:24:26;1.50;1.50;1.50
50587;PMS7003;36546;50.516;30.826;2023-03-14T04:25:30;0.70;0.70;0.40
50587;PMS7003;36546;50.516;30.826;2023-03-14T04:26:34;2.10;1.80;0.90
50587;PMS7003;36546;50.516;30.826;2023-03-14T04:27:37;1.40;1.40;1.10
50587;PMS7003;36546;50.516;30.826;2023-03-14T04:28:41;1.60;1.60;1.40
50587;PMS7003;36546;50.516;30.826;2023-03-14T04:29:44;2.60;1.80;1.40
50587;PMS7003;36546;50.516;30.826;2023-03-14T04:30:48;0.40;0.40;0.30
50587;PMS7003;36546;50.516;30.826;2023-03-14T04:31:53;2.00;2.00;1.40
50587;PMS7003;36546;50.516;30.826;2023-03-14T04:32:55;2.40;1.70;1.00
50587;PMS7003;36546;50.516;30.826;2023-03-14T04:33:59;1.70;1.70;1.20
50587;PMS7003;36546;50.516;30.826;2023-03-14T04:35:06;1.50;1.10;0.60
50587;PMS7003;36546;50.516;30.826;2023-03-14T04:36:10;1.50;1.50;1.10
50587;PMS7003;36546;50.516;30.826;2023-03-14T04:37:13;2.36;1.36;1.36
50587;PMS7003;36546;50.516;30.826;2023-03-14T04:38:17;2.30;1.00;0.50
50587;PMS7003;36546;50.516;30.826;2023-03-14T04:39:20;1.30;1.00;1.00
50587;PMS7003;36546;50.516;30.826;2023-03-14T04:40:25;1.40;1.00;0.40
50587;PMS7003;36546;50.516;30.826;2023-03-14T04:41:29;1.40;1.40;0.70
50587;PMS7003;36546;50.516;30.826;2023-03-14T04:42:32;1.80;1.50;1.00
50587;PMS7003;36546;50.516;30.826;2023-03-14T04:43:36;1.20;0.70;0.70
50587;PMS7003;36546;50.516;30.826;2023-03-14T04:44:44;1.70;1.60;1.30
50587;PMS7003;36546;50.516;30.826;2023-03-14T04:45:48;1.50;1.50;1.00
50587;PMS7003;36546;50.516;30.826;2023-03-14T04:46:50;1.90;1.90;1.20
50587;PMS7003;36546;50.516;30.826;2023-03-14T04:47:54;0.90;0.90;0.40
50587;PMS7003;36546;50.516;30.826;2023-03-14T04:48:57;1.20;1.20;1.20
50587;PMS7003;36546;50.516;30.826;2023-03-14T04:50:00;2.60;1.80;1.30
50587;PMS7003;36546;50.516;30.826;2023-03-14T04:51:03;1.40;1.40;1.30
50587;PMS7003;36546;50.516;30.826;2023-03-14T04:52:08;1.70;1.70;1.60
50587;PMS7003;36546;50.516;30.826;2023-03-14T04:53:12;1.60;1.60;0.90
50587;PMS7003;36546;50.516;30.826;2023-03-14T04:54:17;1.40;1.40;1.20
50587;PMS7003;36546;50.516;30.826;2023-03-14T04:55:21;1.40;1.40;1.30
50587;PMS7003;36546;50.516;30.826;2023-03-14T04:56:26;1.80;1.80;1.50
50587;PMS7003;36546;50.516;30.826;2023-03-14T04:57:28;1.90;1.60;1.10
50587;PMS7003;36546;50.516;30.826;2023-03-14T04:58:32;1.90;1.90;1.20
50587;PMS7003;36546;50.516;30.826;2023-03-14T04:59:35;1.10;1.10;0.90
50587;PMS7003;36546;50.516;30.826;2023-03-14T05:00:40;1.80;1.80;1.40
50587;PMS7003;36546;50.516;30.826;2023-03-14T05:01:44;2.00;1.20;0.70
50587;PMS7003;36546;50.516;30.826;2023-03-14T05:02:51;0.70;0.70;0.40
50587;PMS7003;36546;50.516;30.826;2023-03-14T05:04:05;3.10;1.50;1.30
50587;PMS7003;36546;50.516;30.826;2023-03-14T05:05:27;1.00;1.00;0.90
50587;PMS7003;36546;50.516;30.826;2023-03-14T05:06:47;1.40;1.40;1.00
50587;PMS7003;36546;50.516;30.826;2023-03-14T05:07:58;1.80;1.80;1.40
50587;PMS7003;36546;50.516;30.826;2023-03-14T05:09:03;1.70;1.70;1.40
50587;PMS7003;36546;50.516;30.826;2023-03-14T05:10:09;2.30;2.30;1.40
50587;PMS7003;36546;50.516;30.826;2023-03-14T05:11:20;2.20;1.80;1.80
50587;PMS7003;36546;50.516;30.826;2023-03-14T05:12:36;1.00;1.00;0.70
50587;PMS7003;36546;50.516;30.826;2023-03-14T05:13:41;3.10;1.80;1.10
50587;PMS7003;36546;50.516;30.826;2023-03-14T05:14:52;1.60;1.30;0.80
50587;PMS7003;36546;50.516;30.826;2023-03-14T05:16:03;1.80;1.80;1.20
50587;PMS7003;36546;50.516;30.826;2023-03-14T05:17:15;2.50;2.50;1.90
50587;PMS7003;36546;50.516;30.826;2023-03-14T05:18:19;1.40;1.40;1.30
50587;PMS7003;36546;50.516;30.826;2023-03-14T05:19:32;2.70;1.10;1.20
50587;PMS7003;36546;50.516;30.826;2023-03-14T05:20:49;2.00;1.40;1.40
50587;PMS7003;36546;50.516;30.826;2023-03-14T05:22:07;1.60;1.60;1.50
50587;PMS7003;36546;50.516;30.826;2023-03-14T05:23:28;1.80;1.80;1.10
50587;PMS7003;36546;50.516;30.826;2023-03-14T05:24:38;1.90;1.90;1.10
50587;PMS7003;36546;50.516;30.826;2023-03-14T05:25:50;2.70;2.70;2.20
50587;PMS7003;36546;50.516;30.826;2023-03-14T05:26:54;1.50;1.50;1.30
50587;PMS7003;36546;50.516;30.826;2023-03-14T05:27:59;1.40;1.40;1.20
50587;PMS7003;36546;50.516;30.826;2023-03-14T05:29:19;1.90;1.40;0.90
50587;PMS7003;36546;50.516;30.826;2023-03-14T05:30:26;1.40;1.40;1.30
50587;PMS7003;36546;50.516;30.826;2023-03-14T05:31:30;1.70;1.70;1.00
50587;PMS7003;36546;50.516;30.826;2023-03-14T05:32:40;2.00;2.00;1.40
50587;PMS7003;36546;50.516;30.826;2023-03-14T05:34:03;1.80;1.30;1.20
50587;PMS7003;36546;50.516;30.826;2023-03-14T05:35:20;1.80;1.50;1.40
50587;PMS7003;36546;50.516;30.826;2023-03-14T05:36:30;1.80;1.80;1.20
50587;PMS7003;36546;50.516;30.826;2023-03-14T05:37:32;2.20;1.80;1.30
50587;PMS7003;36546;50.516;30.826;2023-03-14T05:38:53;0.80;0.80;0.60
50587;PMS7003;36546;50.516;30.826;2023-03-14T05:40:04;3.10;1.40;1.30
50587;PMS7003;36546;50.516;30.826;2023-03-14T05:41:18;1.90;1.90;1.20
50587;PMS7003;36546;50.516;30.826;2023-03-14T05:42:30;2.50;2.00;1.60
50587;PMS7003;36546;50.516;30.826;2023-03-14T05:43:35;1.90;1.30;1.10
50587;PMS7003;36546;50.516;30.826;2023-03-14T05:44:40;1.00;1.00;0.90
50587;PMS7003;36546;50.516;30.826;2023-03-14T05:45:48;1.80;1.80;1.30
50587;PMS7003;36546;50.516;30.826;2023-03-14T05:47:00;3.20;2.50;1.80
50587;PMS7003;36546;50.516;30.826;2023-03-14T05:48:03;1.40;1.40;0.80
50587;PMS7003;36546;50.516;30.826;2023-03-14T05:49:20;2.00;2.00;1.40
50587;PMS7003;36546;50.516;30.826;2023-03-14T05:50:34;3.30;3.30;2.40
50587;PMS7003;36546;50.516;30.826;2023-03-14T05:51:39;2.40;2.40;1.70
50587;PMS7003;36546;50.516;30.826;2023-03-14T05:52:46;2.50;1.80;1.10
50587;PMS7003;36546;50.516;30.826;2023-03-14T05:54:08;2.90;2.80;2.10
50587;PMS7003;36546;50.516;30.826;2023-03-14T05:55:15;3.00;2.40;2.40
50587;PMS7003;36546;50.516;30.826;2023-03-14T05:56:19;1.70;1.30;1.30
50587;PMS7003;36546;50.516;30.826;2023-03-14T05:57:23;3.30;3.00;2.30
50587;PMS7003;36546;50.516;30.826;2023-03-14T05:58:33;2.50;2.50;1.90
50587;PMS7003;36546;50.516;30.826;2023-03-14T05:59:37;2.40;2.00;1.50
50587;PMS7003;36546;50.516;30.826;2023-03-14T06:01:01;2.10;2.10;2.10
50587;PMS7003;36546;50.516;30.826;2023-03-14T06:02:07;2.70;2.00;1.60
50587;PMS7003;36546;50.516;30.826;2023-03-14T06:03:11;2.30;2.20;1.80
50587;PMS7003;36546;50.516;30.826;2023-03-14T06:04:15;2.90;2.90;2.10
50587;PMS7003;36546;50.516;30.826;2023-03-14T06:05:19;3.60;3.00;2.30
50587;PMS7003;36546;50.516;30.826;2023-03-14T06:06:22;3.00;3.00;2.40
50587;PMS7003;36546;50.516;30.826;2023-03-14T06:07:24;2.20;2.20;1.90
50587;PMS7003;36546;50.516;30.826;2023-03-14T06:08:27;3.80;2.70;2.10
50587;PMS7003;36546;50.516;30.826;2023-03-14T06:09:30;2.80;2.30;1.60
50587;PMS7003;36546;50.516;30.826;2023-03-14T06:10:34;2.50;2.50;1.90
50587;PMS7003;36546;50.516;30.826;2023-03-14T06:11:37;2.10;2.10;1.40
50587;PMS7003;36546;50.516;30.826;2023-03-14T06:12:41;2.70;2.20;1.90
50587;PMS7003;36546;50.516;30.826;2023-03-14T06:13:43;2.30;2.30;1.80
50587;PMS7003;36546;50.516;30.826;2023-03-14T06:14:45;3.00;2.50;2.10
50587;PMS7003;36546;50.516;30.826;2023-03-14T06:15:49;2.80;2.40;2.00
50587;PMS7003;36546;50.516;30.826;2023-03-14T06:16:53;4.00;3.50;2.80
50587;PMS7003;36546;50.516;30.826;2023-03-14T06:17:55;2.90;2.90;2.10
50587;PMS7003;36546;50.516;30.826;2023-03-14T06:18:59;2.90;2.90;1.80
50587;PMS7003;36546;50.516;30.826;2023-03-14T06:20:03;3.50;3.10;2.40
50587;PMS7003;36546;50.516;30.826;2023-03-14T06:21:07;2.60;2.60;2.40
50587;PMS7003;36546;50.516;30.826;2023-03-14T06:22:11;1.20;0.00;0.00
50587;PMS7003;36546;50.516;30.826;2023-03-14T06:23:15;4.50;2.50;2.50
50587;PMS7003;36546;50.516;30.826;2023-03-14T06:24:18;3.00;2.80;2.30
50587;PMS7003;36546;50.516;30.826;2023-03-14T06:25:22;3.30;3.30;2.40
50587;PMS7003;36546;50.516;30.826;2023-03-14T06:26:26;3.20;2.10;1.80
50587;PMS7003;36546;50.516;30.826;2023-03-14T06:27:28;4.00;4.00;3.64
50587;PMS7003;36546;50.516;30.826;2023-03-14T06:28:31;2.80;2.80;2.50
50587;PMS7003;36546;50.516;30.826;2023-03-14T06:29:36;2.80;2.80;1.80